Time;durP1;ratioP1;P1;durP2;ratioP2;P2;SDS_P1;SDS_P2;PMS_P1;PMS_P2;Temp;Humidity;BMP_temperature;BMP_pressure;BME280_temperature;BME280_humidity;BME280_pressure;Samples;Min_cycle;Max_cycle;Signal;HPM_P1;HPM_P2
2023/03/12 00:01:28;;;;;;;10.05;5.60;;;;;;;1.33;77.28;100780.88;4971695;28;20049;-65
2023/03/12 00:03:54;;;;;;;11.82;6.22;;;;;;;1.36;76.67;100764.84;4979296;28;20062;-65
2023/03/12 00:06:20;;;;;;;9.88;5.65;;;;;;;1.36;76.99;100769.94;4966139;28;20048;-65
2023/03/12 00:08:46;;;;;;;14.77;6.68;;;;;;;1.37;77.33;100769.97;4975256;28;20619;-65
2023/03/12 00:11:14;;;;;;;13.52;6.18;;;;;;;1.39;76.98;100765.75;4974042;28;20495;-64
2023/03/12 00:13:40;;;;;;;9.90;6.00;;;;;;;1.40;77.29;100774.28;4971303;28;20038;-65
2023/03/12 00:16:11;;;;;;;13.35;5.78;;;;;;;1.39;77.28;100768.31;4971478;28;20120;-64
2023/03/12 00:18:37;;;;;;;11.60;5.97;;;;;;;1.37;77.49;100771.63;4967445;28;20049;-64
2023/03/12 00:21:03;;;;;;;9.73;6.45;;;;;;;1.36;76.96;100765.66;4968548;28;20043;-64
2023/03/12 00:23:29;;;;;;;10.88;5.85;;;;;;;1.32;77.77;100773.19;4972588;28;20045;-64
2023/03/12 00:25:59;;;;;;;9.90;6.30;;;;;;;1.27;78.33;100778.19;4975668;28;20132;-64
2023/03/12 00:28:24;;;;;;;14.43;6.13;;;;;;;1.23;78.99;100782.31;4972679;28;20030;-64
2023/03/12 00:30:52;;;;;;;9.30;6.13;;;;;;;1.24;79.27;100780.63;4983569;28;20035;-64
2023/03/12 00:33:17;;;;;;;10.82;6.00;;;;;;;1.25;79.05;100777.25;4980104;28;20041;-64
2023/03/12 00:35:43;;;;;;;11.60;5.30;;;;;;;1.27;78.57;100779.00;4971825;28;20037;-64
2023/03/12 00:38:08;;;;;;;11.43;5.43;;;;;;;1.33;78.86;100765.59;4971544;28;20071;-64
2023/03/12 00:40:33;;;;;;;10.68;5.78;;;;;;;1.39;77.78;100757.28;4972695;28;20055;-64
2023/03/12 00:42:59;;;;;;;10.48;4.82;;;;;;;1.47;77.02;100753.25;4969188;28;20437;-64
2023/03/12 00:45:24;;;;;;;11.27;4.85;;;;;;;1.57;75.67;100734.84;4972212;28;20074;-64
2023/03/12 00:47:50;;;;;;;9.30;4.32;;;;;;;1.63;75.80;100730.78;4972542;28;20750;-64
2023/03/12 00:50:15;;;;;;;10.20;4.10;;;;;;;1.70;74.84;100713.97;4972517;28;20031;-65
2023/03/12 00:52:40;;;;;;;10.30;3.75;;;;;;;1.81;73.85;100694.72;4969717;28;20397;-64
2023/03/12 00:55:06;;;;;;;7.35;4.05;;;;;;;1.89;72.61;100685.63;4968536;28;20069;-65
2023/03/12 00:57:32;;;;;;;5.60;3.58;;;;;;;1.98;71.18;100647.59;4979319;28;20034;-64
2023/03/12 00:59:57;;;;;;;5.40;3.63;;;;;;;2.08;70.86;100626.59;4969922;28;20039;-62
2023/03/12 01:02:22;;;;;;;9.68;4.70;;;;;;;2.12;70.35;100636.03;4970757;28;20035;-62
2023/03/12 01:04:48;;;;;;;9.63;3.72;;;;;;;2.18;70.58;100635.31;4974907;28;20139;-62
2023/03/12 01:07:13;;;;;;;7.15;3.97;;;;;;;2.17;70.32;100634.44;4970936;28;20042;-62
2023/03/12 01:09:38;;;;;;;8.52;5.13;;;;;;;2.19;70.46;100637.88;4970625;28;20101;-62
2023/03/12 01:12:04;;;;;;;12.75;3.47;;;;;;;2.19;70.30;100642.16;4984219;28;20050;-62
2023/03/12 01:14:30;;;;;;;6.72;3.55;;;;;;;2.20;70.41;100651.50;4976857;28;20035;-62
2023/03/12 01:16:55;;;;;;;10.77;3.65;;;;;;;2.23;70.26;100649.03;4974437;28;20096;-62
2023/03/12 01:19:21;;;;;;;8.93;3.92;;;;;;;2.24;70.43;100643.09;4966603;28;20089;-62
2023/03/12 01:21:46;;;;;;;5.10;3.20;;;;;;;2.25;70.37;100644.84;4970311;28;20411;-62
2023/03/12 01:24:11;;;;;;;6.85;3.80;;;;;;;2.25;70.32;100644.84;4974983;28;20517;-62
2023/03/12 01:26:37;;;;;;;13.15;4.15;;;;;;;2.25;70.36;100643.13;4971708;28;20034;-62
2023/03/12 01:29:02;;;;;;;6.80;3.92;;;;;;;2.26;70.44;100642.31;4975401;28;20508;-62
2023/03/12 01:31:28;;;;;;;8.23;3.83;;;;;;;2.26;70.94;100644.00;4976260;28;20035;-62
2023/03/12 01:33:53;;;;;;;6.63;3.40;;;;;;;2.26;71.07;100647.41;4974502;28;20042;-62
2023/03/12 01:36:25;;;;;;;7.88;3.95;;;;;;;2.27;71.20;100648.28;4977917;28;20496;-62
2023/03/12 01:38:52;;;;;;;9.13;4.43;;;;;;;2.27;71.44;100653.38;4968628;28;20026;-63
2023/03/12 01:41:18;;;;;;;8.23;3.97;;;;;;;2.29;71.24;100649.16;4973346;28;20037;-62
2023/03/12 01:43:44;;;;;;;6.75;3.83;;;;;;;2.28;70.97;100635.53;4972993;28;20037;-62
2023/03/12 01:46:35;;;;;;;9.95;3.58;;;;;;;2.27;70.49;100617.69;4989018;28;20161;-62
2023/03/12 01:49:07;;;;;;;9.80;3.45;;;;;;;2.27;69.80;100599.81;5003556;28;20092;-61
2023/03/12 01:51:38;;;;;;;5.70;3.20;;;;;;;2.26;69.74;100593.88;4982236;28;20290;-62
2023/03/12 01:54:11;;;;;;;10.88;4.90;;;;;;;2.27;68.97;100594.72;4971239;28;20130;-62
2023/03/12 01:56:38;;;;;;;7.25;3.50;;;;;;;2.25;69.01;100594.69;4973433;28;20029;-63
2023/03/12 01:59:12;;;;;;;4.43;2.95;;;;;;;2.25;69.38;100587.03;4972898;28;20077;-63
2023/03/12 02:01:40;;;;;;;6.57;3.55;;;;;;;2.27;68.54;100564.13;4983000;28;20039;-62
2023/03/12 02:04:06;;;;;;;6.15;3.15;;;;;;;2.32;68.30;100559.97;4979393;28;20038;-63
2023/03/12 02:06:42;;;;;;;5.45;3.33;;;;;;;2.37;68.21;100563.47;4979681;28;20049;-62
2023/03/12 02:09:08;;;;;;;8.13;3.40;;;;;;;2.38;68.29;100552.47;4973093;28;20069;-62
2023/03/12 02:11:34;;;;;;;5.93;3.20;;;;;;;2.37;68.05;100553.28;4972850;28;20480;-62
2023/03/12 02:14:01;;;;;;;8.35;3.35;;;;;;;2.40;68.22;100548.25;4973174;28;20139;-62
2023/03/12 02:16:27;;;;;;;5.03;3.13;;;;;;;2.45;67.80;100536.47;4974741;28;20150;-62
2023/03/12 02:18:54;;;;;;;7.20;2.95;;;;;;;2.52;67.03;100524.69;4970088;28;20053;-62
2023/03/12 02:21:24;;;;;;;4.45;2.92;;;;;;;2.54;66.80;100510.28;4977947;28;20049;-63
2023/03/12 02:24:07;;;;;;;8.40;3.33;;;;;;;2.58;67.05;100504.41;4974708;28;20031;-62
2023/03/12 02:26:35;;;;;;;5.03;3.00;;;;;;;2.61;66.52;100507.00;4976461;28;20049;-62
2023/03/12 02:29:00;;;;;;;7.60;3.33;;;;;;;2.62;67.27;100517.25;4985528;28;20080;-62
2023/03/12 02:31:31;;;;;;;4.78;3.00;;;;;;;2.65;66.35;100502.00;5000344;28;20038;-63
2023/03/12 02:33:59;;;;;;;5.57;3.20;;;;;;;2.64;66.85;100510.47;4985280;28;20407;-62
2023/03/12 02:36:25;;;;;;;9.93;2.70;;;;;;;2.68;66.52;100499.50;4967192;28;20124;-62
2023/03/12 02:38:52;;;;;;;4.43;2.70;;;;;;;2.71;66.30;100494.47;4976546;28;20042;-63
2023/03/12 02:41:21;;;;;;;5.10;3.35;;;;;;;2.70;66.74;100497.81;4974607;28;20096;-63
2023/03/12 02:43:56;;;;;;;5.13;2.80;;;;;;;2.73;66.57;100497.03;4972436;28;20754;-62
2023/03/12 02:46:21;;;;;;;7.55;3.28;;;;;;;2.73;66.43;100500.44;4984457;28;20104;-62
2023/03/12 02:48:47;;;;;;;7.95;3.40;;;;;;;2.73;67.06;100513.19;4980920;28;20601;-63
2023/03/12 02:51:12;;;;;;;9.00;3.50;;;;;;;2.74;66.70;100511.50;4981028;28;20051;-62
2023/03/12 02:53:38;;;;;;;7.85;3.38;;;;;;;2.77;66.35;100511.56;4980329;28;20030;-62
2023/03/12 02:56:04;;;;;;;9.18;3.00;;;;;;;2.77;67.20;100525.19;4982528;28;20029;-62
2023/03/12 02:58:29;;;;;;;6.68;2.72;;;;;;;2.78;67.36;100532.03;4985119;28;20038;-62
2023/03/12 03:00:55;;;;;;;9.57;2.75;;;;;;;2.82;66.93;100515.06;4975596;28;20121;-62
2023/03/12 03:03:20;;;;;;;15.75;3.25;;;;;;;2.83;66.11;100506.56;4976516;28;20042;-63
2023/03/12 03:05:46;;;;;;;4.53;2.40;;;;;;;2.83;66.05;100502.34;4973980;28;20476;-62
2023/03/12 03:08:11;;;;;;;7.63;2.88;;;;;;;2.86;66.08;100499.84;4978527;28;20101;-62
2023/03/12 03:10:36;;;;;;;5.60;3.03;;;;;;;2.83;66.58;100517.66;4994513;28;20403;-62
2023/03/12 03:13:02;;;;;;;5.22;2.65;;;;;;;2.84;66.98;100531.28;4979276;28;20052;-62
2023/03/12 03:15:27;;;;;;;7.07;2.40;;;;;;;2.85;66.99;100538.09;4987199;28;20393;-62
2023/03/12 03:17:53;;;;;;;4.68;2.72;;;;;;;2.84;66.99;100534.69;4980522;28;20039;-62
2023/03/12 03:20:18;;;;;;;5.13;2.70;;;;;;;2.84;66.48;100526.19;4981534;28;20064;-63
2023/03/12 03:22:44;;;;;;;7.38;2.88;;;;;;;2.86;65.76;100512.59;4980049;28;20039;-62
2023/03/12 03:25:10;;;;;;;11.15;2.78;;;;;;;2.88;65.91;100512.63;4976334;28;20035;-62
2023/03/12 03:27:35;;;;;;;5.00;2.70;;;;;;;2.89;66.20;100497.34;4974463;28;20126;-62
2023/03/12 03:30:01;;;;;;;5.85;2.60;;;;;;;2.91;65.93;100502.47;4977688;28;20039;-63
2023/03/12 03:32:27;;;;;;;6.78;2.70;;;;;;;2.94;65.88;100497.41;4984248;28;20037;-62
2023/03/12 03:34:52;;;;;;;7.18;2.05;;;;;;;2.95;65.33;100484.69;4985194;28;20415;-62
2023/03/12 03:37:18;;;;;;;5.82;2.78;;;;;;;2.95;65.40;100499.16;4977934;28;20042;-62
2023/03/12 03:39:43;;;;;;;7.25;2.72;;;;;;;2.97;65.63;100511.09;4980608;28;20893;-62
2023/03/12 03:42:09;;;;;;;6.82;2.85;;;;;;;2.97;66.51;100517.88;4978459;28;20038;-63
2023/03/12 03:44:34;;;;;;;5.18;2.55;;;;;;;2.96;66.91;100514.47;4978801;28;20110;-62
2023/03/12 03:46:59;;;;;;;8.80;2.75;;;;;;;2.96;66.88;100513.63;4977808;28;20041;-63
2023/03/12 03:49:25;;;;;;;6.43;2.85;;;;;;;2.96;66.27;100511.09;4974204;28;20050;-63
2023/03/12 03:51:51;;;;;;;5.97;2.17;;;;;;;2.98;66.00;100496.66;4981943;28;20034;-63
2023/03/12 03:54:16;;;;;;;5.35;2.45;;;;;;;3.01;65.45;100480.53;4976137;28;20423;-62
2023/03/12 03:56:42;;;;;;;6.65;2.53;;;;;;;3.03;65.96;100489.06;4982829;28;20462;-62
2023/03/12 03:59:07;;;;;;;5.05;2.08;;;;;;;3.07;65.14;100470.41;4980387;28;20031;-61
2023/03/12 04:01:33;;;;;;;7.22;2.40;;;;;;;3.09;65.19;100461.06;4981088;28;20043;-63
2023/03/12 04:03:59;;;;;;;6.93;2.47;;;;;;;3.11;65.19;100455.16;4985768;28;20298;-62
2023/03/12 04:06:24;;;;;;;7.32;2.60;;;;;;;3.14;64.49;100437.31;4994472;28;20061;-62
2023/03/12 04:08:49;;;;;;;7.40;2.25;;;;;;;3.15;64.50;100451.81;4992989;28;20037;-62
2023/03/12 04:11:18;;;;;;;6.22;2.42;;;;;;;3.17;64.25;100449.31;4990887;28;20056;-62
2023/03/12 04:13:44;;;;;;;6.07;2.63;;;;;;;3.18;63.76;100448.47;4994706;28;20044;-62
2023/03/12 04:16:10;;;;;;;5.10;2.22;;;;;;;3.21;64.10;100453.63;4999799;28;20103;-62
2023/03/12 04:18:36;;;;;;;9.75;2.70;;;;;;;3.22;64.19;100458.75;5004994;28;20562;-63
2023/03/12 04:21:03;;;;;;;6.88;2.20;;;;;;;3.23;64.15;100464.75;4997409;28;20041;-61
2023/03/12 04:23:28;;;;;;;5.22;2.70;;;;;;;3.24;63.71;100459.63;5003553;28;20068;-61
2023/03/12 04:25:54;;;;;;;3.67;2.13;;;;;;;3.25;64.13;100453.72;4999260;28;20439;-63
2023/03/12 04:28:19;;;;;;;13.07;3.80;;;;;;;3.29;63.46;100454.63;4993446;28;20052;-63
2023/03/12 04:30:44;;;;;;;4.63;2.08;;;;;;;3.30;64.38;100459.75;4992732;28;20086;-63
2023/03/12 04:33:10;;;;;;;6.30;2.65;;;;;;;3.31;63.86;100453.81;4997361;28;20365;-62
2023/03/12 04:35:35;;;;;;;7.53;2.25;;;;;;;3.33;64.76;100462.34;4992703;28;20057;-61
2023/03/12 04:38:02;;;;;;;4.38;2.10;;;;;;;3.33;64.16;100467.44;5002986;28;20464;-62
2023/03/12 04:40:27;;;;;;;6.35;2.42;;;;;;;3.32;64.38;100465.72;5000874;28;20502;-62
2023/03/12 04:42:53;;;;;;;4.95;2.35;;;;;;;3.32;65.53;100486.16;4997563;28;20080;-62
2023/03/12 04:45:18;;;;;;;6.68;2.45;;;;;;;3.29;66.30;100487.81;4994188;28;20034;-61
2023/03/12 04:47:44;;;;;;;6.75;2.22;;;;;;;3.26;67.10;100501.38;4991206;28;20084;-62
2023/03/12 04:50:10;;;;;;;7.68;3.05;;;;;;;3.23;66.90;100505.59;4993227;28;20030;-61
2023/03/12 04:52:36;;;;;;;6.22;2.13;;;;;;;3.16;68.60;100542.94;4993000;28;20038;-62
2023/03/12 04:55:02;;;;;;;7.55;2.17;;;;;;;3.07;69.90;100559.78;4998232;28;20033;-62
2023/03/12 04:57:27;;;;;;;6.32;2.25;;;;;;;3.03;70.46;100565.66;4990593;28;20085;-61
2023/03/12 04:59:52;;;;;;;5.55;2.60;;;;;;;2.92;71.58;100589.31;4992042;28;20149;-62
2023/03/12 05:02:18;;;;;;;4.45;2.28;;;;;;;2.76;73.87;100605.13;4993775;28;20030;-62
2023/03/12 05:04:43;;;;;;;5.13;2.97;;;;;;;2.62;75.85;100619.31;4991418;28;20104;-62
2023/03/12 05:07:09;;;;;;;8.35;2.60;;;;;;;2.56;76.44;100614.06;4990417;28;20537;-62
2023/03/12 05:09:34;;;;;;;6.28;2.78;;;;;;;2.54;76.76;100600.44;4985014;28;20045;-62
2023/03/12 05:12:00;;;;;;;7.30;2.80;;;;;;;2.54;76.90;100597.00;4992034;28;20496;-62
2023/03/12 05:14:25;;;;;;;8.63;2.50;;;;;;;2.52;78.07;100601.22;4983810;28;20065;-62
2023/03/12 05:16:51;;;;;;;7.43;2.95;;;;;;;2.53;77.75;100593.59;4987318;28;20090;-62
2023/03/12 05:19:16;;;;;;;7.03;2.83;;;;;;;2.50;78.56;100601.19;4990780;28;20030;-62
2023/03/12 05:21:42;;;;;;;5.25;2.67;;;;;;;2.48;78.87;100594.31;4991734;28;20407;-62
2023/03/12 05:24:09;;;;;;;5.53;2.80;;;;;;;2.40;79.66;100589.03;4993902;28;20100;-62
2023/03/12 05:26:34;;;;;;;5.72;2.95;;;;;;;2.38;80.19;100577.97;4990330;28;20097;-62
2023/03/12 05:29:01;;;;;;;7.78;2.60;;;;;;;2.37;80.92;100569.44;4997617;28;20472;-62
2023/03/12 05:31:31;;;;;;;6.03;3.15;;;;;;;2.31;81.18;100578.69;4995862;28;20193;-61
2023/03/12 05:33:58;;;;;;;7.70;2.92;;;;;;;2.23;82.46;100580.19;4989019;28;20061;-62
2023/03/12 05:36:23;;;;;;;13.30;2.88;;;;;;;2.21;82.91;100572.50;4986391;28;20054;-62
2023/03/12 05:38:49;;;;;;;8.15;2.40;;;;;;;2.21;83.48;100566.53;4989924;28;20114;-63
2023/03/12 05:41:27;;;;;;;7.05;2.90;;;;;;;2.24;83.55;100561.50;4992221;28;20538;-64
2023/03/12 05:43:55;;;;;;;8.15;3.53;;;;;;;2.22;83.81;100561.47;4993094;28;20045;-62
2023/03/12 05:46:20;;;;;;;9.43;3.22;;;;;;;2.24;84.20;100558.97;4990525;28;20862;-63
2023/03/12 05:48:46;;;;;;;7.25;2.90;;;;;;;2.22;84.60;100542.78;4991987;28;20038;-63
2023/03/12 05:51:12;;;;;;;6.57;2.72;;;;;;;2.17;85.04;100549.44;4991515;28;20476;-64
2023/03/12 05:53:37;;;;;;;5.72;2.83;;;;;;;2.12;85.73;100546.81;4989403;28;20698;-64
2023/03/12 05:56:05;;;;;;;11.38;3.35;;;;;;;2.12;86.86;100536.63;4993285;28;20040;-63
2023/03/12 05:58:31;;;;;;;19.83;5.43;;;;;;;2.16;86.64;100542.66;4995063;28;20050;-63
2023/03/12 06:00:56;;;;;;;7.75;2.80;;;;;;;2.17;86.85;100544.34;4987942;28;20650;-64
2023/03/12 06:03:21;;;;;;;8.18;3.22;;;;;;;2.21;87.10;100544.47;4991401;28;20049;-64
2023/03/12 06:05:47;;;;;;;6.18;3.10;;;;;;;2.22;87.57;100535.97;4987167;28;21952;-63
2023/03/12 06:08:13;;;;;;;5.88;3.25;;;;;;;2.24;87.11;100518.16;4987410;28;20033;-63
2023/03/12 06:10:39;;;;;;;7.78;3.20;;;;;;;2.25;87.19;100515.63;4983613;28;20057;-64
2023/03/12 06:13:04;;;;;;;6.95;3.05;;;;;;;2.28;86.85;100517.41;4989108;28;20042;-63
2023/03/12 06:15:30;;;;;;;9.20;3.03;;;;;;;2.28;86.36;100512.31;4988776;28;20821;-63
2023/03/12 06:17:55;;;;;;;5.25;3.35;;;;;;;2.31;85.77;100515.75;4992974;28;20030;-62
2023/03/12 06:20:21;;;;;;;6.65;2.80;;;;;;;2.33;85.31;100509.03;4987252;28;20116;-64
2023/03/12 06:22:47;;;;;;;10.27;3.83;;;;;;;2.36;85.93;100511.63;4989708;28;20092;-63
2023/03/12 06:25:12;;;;;;;9.48;3.30;;;;;;;2.38;84.81;100509.97;4989574;28;20050;-63
2023/03/12 06:27:38;;;;;;;6.85;3.13;;;;;;;2.41;84.88;100520.22;4982577;28;20045;-62
2023/03/12 06:30:04;;;;;;;6.43;3.90;;;;;;;2.45;84.92;100505.84;4995140;28;20038;-62
2023/03/12 06:32:30;;;;;;;11.45;2.83;;;;;;;2.50;83.96;100499.16;5002879;28;20080;-63
2023/03/12 06:34:55;;;;;;;4.32;2.70;;;;;;;2.55;83.53;100504.34;4989217;28;20030;-63
2023/03/12 06:37:21;;;;;;;7.32;2.63;;;;;;;2.60;83.50;100501.06;4991504;28;20034;-63
2023/03/12 06:39:46;;;;;;;6.47;2.72;;;;;;;2.62;83.00;100504.50;4992214;28;20033;-63
2023/03/12 06:42:13;;;;;;;6.72;3.30;;;;;;;2.67;83.12;100507.13;4995363;28;20335;-63
2023/03/12 06:44:39;;;;;;;6.18;3.25;;;;;;;2.70;83.01;100513.13;4995728;28;20041;-63
2023/03/12 06:47:04;;;;;;;4.90;2.35;;;;;;;2.77;83.04;100511.56;5005665;28;20026;-62
2023/03/12 06:49:32;;;;;;;8.68;2.53;;;;;;;2.80;81.96;100509.94;4995400;28;20404;-63
2023/03/12 06:51:57;;;;;;;9.57;2.97;;;;;;;2.82;82.09;100515.94;4995471;28;20068;-63
2023/03/12 06:54:23;;;;;;;13.73;3.28;;;;;;;2.84;82.02;100516.84;5000053;28;20133;-63
2023/03/12 06:56:48;;;;;;;8.00;3.30;;;;;;;2.87;82.09;100516.03;4996348;28;20022;-63
2023/03/12 06:59:14;;;;;;;8.05;3.10;;;;;;;2.86;81.44;100517.72;4995599;28;20518;-63
2023/03/12 07:01:39;;;;;;;11.18;3.13;;;;;;;2.92;82.46;100516.97;4997287;28;20402;-63
2023/03/12 07:04:04;;;;;;;10.13;2.80;;;;;;;2.96;82.17;100516.19;4994451;28;20810;-63
2023/03/12 07:06:30;;;;;;;7.95;3.08;;;;;;;3.02;82.30;100530.75;4993438;28;20052;-63
2023/03/12 07:08:55;;;;;;;11.32;4.85;;;;;;;3.07;81.80;100516.38;4991482;28;20034;-63
2023/03/12 07:11:21;;;;;;;12.52;3.17;;;;;;;3.10;81.31;100511.31;5001799;28;20034;-63
2023/03/12 07:13:46;;;;;;;7.75;2.75;;;;;;;3.14;81.83;100508.81;5000069;28;20049;-63
2023/03/12 07:16:11;;;;;;;5.82;3.22;;;;;;;3.18;81.76;100520.81;4991339;28;20492;-63
2023/03/12 07:18:37;;;;;;;11.27;2.92;;;;;;;3.22;81.07;100499.63;4990480;28;20041;-63
2023/03/12 07:21:03;;;;;;;5.57;2.60;;;;;;;3.26;81.33;100503.09;4992503;28;20042;-63
2023/03/12 07:23:28;;;;;;;8.52;2.80;;;;;;;3.29;81.25;100505.69;4989205;28;20033;-63
2023/03/12 07:25:54;;;;;;;7.95;2.60;;;;;;;3.31;81.77;100514.25;5004083;28;20040;-63
2023/03/12 07:28:20;;;;;;;7.22;3.63;;;;;;;3.36;81.24;100504.94;5000780;28;20037;-64
2023/03/12 07:30:49;;;;;;;10.23;3.30;;;;;;;3.42;81.46;100513.56;5009553;28;20061;-63
2023/03/12 07:33:17;;;;;;;6.65;2.72;;;;;;;3.47;81.25;100505.97;4993998;28;20038;-63
2023/03/12 07:35:45;;;;;;;10.23;3.03;;;;;;;3.50;81.67;100508.56;4992293;28;20029;-63
2023/03/12 07:38:10;;;;;;;7.50;2.75;;;;;;;3.53;80.58;100508.63;4988091;28;20503;-63
2023/03/12 07:40:36;;;;;;;11.07;3.05;;;;;;;3.52;80.81;100501.81;4986822;28;20050;-64
2023/03/12 07:43:02;;;;;;;7.18;3.20;;;;;;;3.52;80.77;100495.00;4992131;28;20033;-63
2023/03/12 07:45:27;;;;;;;8.27;3.63;;;;;;;3.56;81.82;100498.44;5008622;28;20152;-64
2023/03/12 07:47:53;;;;;;;8.20;3.03;;;;;;;3.65;81.27;100493.47;5005484;28;20560;-64
2023/03/12 07:50:19;;;;;;;5.28;2.72;;;;;;;3.72;81.56;100487.63;5007669;28;20028;-64
2023/03/12 07:52:45;;;;;;;5.90;2.90;;;;;;;3.78;81.07;100482.63;4997423;28;20808;-63
2023/03/12 07:55:11;;;;;;;8.50;3.08;;;;;;;3.81;80.90;100494.56;4993182;28;20034;-64
2023/03/12 07:57:37;;;;;;;8.13;2.78;;;;;;;3.80;80.78;100501.38;4995673;28;20112;-63
2023/03/12 08:00:06;;;;;;;8.98;3.90;;;;;;;3.85;81.66;100504.88;5010569;28;20052;-63
2023/03/12 08:02:31;;;;;;;4.28;3.13;;;;;;;3.92;81.64;100501.56;4991552;28;20069;-63
2023/03/12 08:04:57;;;;;;;7.40;3.33;;;;;;;3.96;81.87;100499.91;5008714;28;20132;-62
2023/03/12 08:07:22;;;;;;;8.30;3.67;;;;;;;4.04;81.38;100496.63;4995094;28;20042;-63
2023/03/12 08:09:48;;;;;;;7.97;3.45;;;;;;;4.13;81.91;100500.13;4989395;28;20033;-63
2023/03/12 08:12:14;;;;;;;7.85;4.15;;;;;;;4.19;81.64;100498.50;4997423;28;20664;-63
2023/03/12 08:14:39;;;;;;;6.22;3.00;;;;;;;4.22;81.77;100490.00;4999977;28;20045;-63
2023/03/12 08:17:04;;;;;;;9.35;3.70;;;;;;;4.26;80.71;100486.66;5005141;28;20906;-63
2023/03/12 08:19:30;;;;;;;6.30;3.00;;;;;;;4.34;81.50;100491.03;4995703;28;20034;-63
2023/03/12 08:21:56;;;;;;;8.38;3.90;;;;;;;4.43;81.22;100485.16;4988949;28;20048;-64
2023/03/12 08:24:22;;;;;;;9.25;3.03;;;;;;;4.48;81.63;100476.69;4996511;28;20048;-63
2023/03/12 08:26:48;;;;;;;12.57;5.40;;;;;;;4.53;81.04;100482.75;4997629;28;20049;-63
2023/03/12 08:29:14;;;;;;;7.35;3.33;;;;;;;4.54;81.38;100487.00;4994673;28;20029;-62
2023/03/12 08:31:40;;;;;;;5.97;3.20;;;;;;;4.53;81.24;100487.00;5006511;28;20038;-63
2023/03/12 08:34:05;;;;;;;7.38;3.20;;;;;;;4.61;80.93;100488.78;4996844;28;20046;-63
2023/03/12 08:36:30;;;;;;;8.73;4.32;;;;;;;4.74;81.24;100494.06;5001069;28;20041;-62
2023/03/12 08:38:56;;;;;;;10.65;4.00;;;;;;;4.88;81.23;100487.38;4996508;28;20494;-63
2023/03/12 08:41:21;;;;;;;7.40;4.28;;;;;;;4.96;81.29;100493.41;4991991;28;20045;-63
2023/03/12 08:43:47;;;;;;;6.85;3.92;;;;;;;5.05;81.85;100496.06;4995759;28;20144;-63
2023/03/12 08:46:12;;;;;;;8.40;4.50;;;;;;;5.07;81.90;100495.22;4989470;28;20149;-63
2023/03/12 08:48:38;;;;;;;8.55;4.03;;;;;;;5.08;82.30;100489.28;4996057;28;20037;-63
2023/03/12 08:51:06;;;;;;;10.68;4.72;;;;;;;5.16;82.84;100495.31;4994118;28;20149;-63
2023/03/12 08:53:33;;;;;;;6.22;4.10;;;;;;;5.19;83.76;100497.91;5002402;28;20029;-63
2023/03/12 08:55:59;;;;;;;8.55;4.13;;;;;;;5.26;84.90;100493.69;5010076;28;20041;-63
2023/03/12 08:58:24;;;;;;;7.47;4.80;;;;;;;5.38;86.29;100486.13;5004785;28;20030;-63
2023/03/12 09:00:50;;;;;;;10.50;4.63;;;;;;;5.43;85.80;100481.88;4989538;28;20026;-63
2023/03/12 09:03:16;;;;;;;9.68;4.70;;;;;;;5.58;87.07;100484.56;4996412;28;20038;-63
2023/03/12 09:05:43;;;;;;;6.65;4.28;;;;;;;5.66;85.95;100484.63;4993134;28;20030;-63
2023/03/12 09:08:10;;;;;;;7.97;4.22;;;;;;;5.74;86.52;100485.53;4990206;28;20037;-65
2023/03/12 09:10:36;;;;;;;9.23;4.18;;;;;;;5.77;87.35;100482.97;4987220;28;20487;-64
2023/03/12 09:13:02;;;;;;;5.22;3.70;;;;;;;5.76;87.62;100479.56;4996450;28;20107;-63
2023/03/12 09:15:28;;;;;;;7.43;4.50;;;;;;;5.76;87.06;100474.41;5007321;28;20080;-63
2023/03/12 09:17:54;;;;;;;9.63;4.60;;;;;;;5.86;87.59;100477.91;5001833;28;20091;-65
2023/03/12 09:20:20;;;;;;;8.55;4.85;;;;;;;5.87;87.98;100483.91;5004341;28;20025;-64
2023/03/12 09:22:47;;;;;;;7.45;4.78;;;;;;;5.92;87.89;100482.22;4986745;28;20517;-63
2023/03/12 09:25:12;;;;;;;9.20;5.38;;;;;;;5.90;88.55;100492.47;4995156;28;20693;-64
2023/03/12 09:27:42;;;;;;;10.65;4.72;;;;;;;5.92;88.47;100492.47;4994749;28;20116;-64
2023/03/12 09:30:11;;;;;;;8.13;4.78;;;;;;;5.88;89.22;100485.59;4985515;28;20064;-63
2023/03/12 09:32:37;;;;;;;9.85;4.97;;;;;;;5.81;89.75;100489.00;4993676;28;20088;-63
2023/03/12 09:35:04;;;;;;;10.65;4.70;;;;;;;5.75;90.35;100485.53;4996652;28;20522;-63
2023/03/12 09:37:31;;;;;;;9.73;5.10;;;;;;;5.78;90.52;100492.41;5000760;28;20462;-64
2023/03/12 09:39:57;;;;;;;19.10;6.15;;;;;;;5.81;90.97;100492.41;5005788;28;20033;-64
2023/03/12 09:42:48;;;;;;;12.07;6.00;;;;;;;6.03;92.00;100494.25;4989686;28;20053;-64
2023/03/12 09:45:26;;;;;;;9.52;5.45;;;;;;;6.12;91.27;100494.28;4996681;28;20049;-63
2023/03/12 09:47:56;;;;;;;10.30;5.53;;;;;;;6.19;91.46;100490.06;4987080;28;20025;-63
2023/03/12 09:50:42;;;;;;;10.23;5.50;;;;;;;6.28;91.10;100490.97;4995408;28;20512;-63
2023/03/12 09:53:22;;;;;;;9.25;5.38;;;;;;;6.34;91.07;100493.56;4996654;28;20053;-63
2023/03/12 09:55:51;;;;;;;11.30;5.93;;;;;;;6.32;90.47;100489.25;4995038;28;20037;-62
2023/03/12 09:58:29;;;;;;;8.35;5.38;;;;;;;6.26;91.32;100495.22;4994429;28;20745;-63
2023/03/12 10:01:08;;;;;;;8.93;5.57;;;;;;;6.37;91.56;100485.00;4998748;28;20097;-63
2023/03/12 10:03:50;;;;;;;9.55;5.72;;;;;;;6.40;91.97;100484.16;4999972;28;20856;-63
2023/03/12 10:06:19;;;;;;;11.95;7.13;;;;;;;6.49;92.28;100486.75;4989006;28;20519;-64
2023/03/12 10:09:22;;;;;;;14.77;6.20;;;;;;;6.67;91.90;100492.81;4994830;28;20037;-64
2023/03/12 10:12:05;;;;;;;11.75;4.97;;;;;;;6.78;91.10;100498.84;4995189;28;20022;-63
2023/03/12 10:14:49;;;;;;;12.10;5.93;;;;;;;6.95;91.54;100485.16;4989399;28;20030;-63
2023/03/12 10:17:29;;;;;;;12.55;5.47;;;;;;;7.06;91.25;100488.63;5000769;28;20682;-64
2023/03/12 10:20:09;;;;;;;13.07;6.55;;;;;;;7.19;91.05;100480.94;4987922;28;20129;-65
2023/03/12 10:22:48;;;;;;;9.25;5.43;;;;;;;7.25;90.43;100487.81;4996656;28;20050;-64
2023/03/12 10:26:15;;;;;;;7.45;5.57;;;;;;;7.29;91.02;100482.69;4996323;28;20047;-65
2023/03/12 10:28:59;;;;;;;12.73;5.80;;;;;;;7.23;91.41;100480.09;4975105;28;20752;-64
2023/03/12 10:31:31;;;;;;;10.52;6.40;;;;;;;7.14;91.88;100484.34;4968991;28;20058;-65
2023/03/12 10:34:01;;;;;;;10.05;5.85;;;;;;;7.15;92.67;100489.50;4991982;28;20045;-65
2023/03/12 10:36:26;;;;;;;11.02;6.82;;;;;;;7.17;92.98;100492.09;4986641;28;20046;-64
2023/03/12 10:38:52;;;;;;;12.55;6.10;;;;;;;7.19;92.88;100490.38;5007270;28;20041;-65
2023/03/12 10:41:21;;;;;;;13.90;7.32;;;;;;;7.22;93.17;100492.94;4999780;28;20045;-65
2023/03/12 10:43:46;;;;;;;11.13;7.57;;;;;;;7.25;93.79;100486.09;5010748;28;20070;-64
2023/03/12 10:46:51;;;;;;;12.75;6.93;;;;;;;7.30;93.20;100491.22;5008453;28;20136;-65
2023/03/12 10:49:24;;;;;;;9.75;6.25;;;;;;;7.40;93.67;100485.25;4982881;28;20092;-64
2023/03/12 10:51:52;;;;;;;9.18;5.97;;;;;;;7.56;94.15;100484.38;4991214;28;20030;-64
2023/03/12 10:54:26;;;;;;;11.27;6.18;;;;;;;7.60;93.28;100491.22;4997702;28;20161;-64
2023/03/12 10:56:51;;;;;;;9.30;5.93;;;;;;;7.67;93.88;100485.22;4994037;28;20024;-64
2023/03/12 10:59:21;;;;;;;9.65;7.05;;;;;;;7.70;93.41;100487.78;4991549;28;20284;-64
2023/03/12 11:01:51;;;;;;;14.38;7.80;;;;;;;7.77;93.41;100491.22;5003213;28;20084;-63
2023/03/12 11:04:29;;;;;;;12.73;7.38;;;;;;;7.79;92.83;100487.78;4996637;28;20675;-64
2023/03/12 11:07:26;;;;;;;12.18;6.97;;;;;;;7.78;92.45;100488.63;4994127;28;20471;-63
2023/03/12 11:10:03;;;;;;;12.57;7.32;;;;;;;7.85;93.36;100492.06;4989311;28;20052;-64
2023/03/12 11:12:29;;;;;;;10.45;6.75;;;;;;;7.88;92.87;100494.63;4992267;28;20080;-63
2023/03/12 11:14:56;;;;;;;12.40;6.30;;;;;;;7.89;92.85;100491.22;4995221;28;20058;-64
2023/03/12 11:17:24;;;;;;;9.80;6.75;;;;;;;7.83;92.57;100492.03;4990152;28;20495;-64
2023/03/12 11:19:50;;;;;;;13.32;6.30;;;;;;;7.85;92.74;100495.50;4987210;28;20042;-63
2023/03/12 11:22:31;;;;;;;10.13;6.53;;;;;;;7.87;93.55;100492.91;4999930;28;20158;-64
2023/03/12 11:25:05;;;;;;;9.80;6.25;;;;;;;7.95;93.75;100494.59;4990326;28;20997;-64
2023/03/12 11:27:42;;;;;;;12.27;6.20;;;;;;;8.07;94.22;100501.44;5002180;28;20044;-63
2023/03/12 11:30:14;;;;;;;10.55;6.15;;;;;;;8.05;94.04;100492.88;5004684;28;20044;-63
2023/03/12 11:32:44;;;;;;;13.27;6.85;;;;;;;8.13;93.83;100474.84;4998448;28;20036;-63
2023/03/12 11:35:12;;;;;;;16.27;7.90;;;;;;;8.18;94.39;100497.13;5000656;28;20029;-63